TimeCDT,TemperatureF,Dew PointF,Humidity,Sea Level PressureIn,VisibilityMPH,Wind Direction,Wind SpeedMPH,Gust SpeedMPH,PrecipitationIn,Events,Conditions,WindDirDegrees,DateUTC
12:13 AM,24.8,21.2,86,29.93,7.0,NNW,20.7,25.3,N/A,,Overcast,340,2013-03-10 06:13:00
12:33 AM,23.0,19.4,86,29.93,7.0,North,26.5,33.4,N/A,,Overcast,350,2013-03-10 06:33:00
12:53 AM,23.0,19.4,86,29.93,4.0,North,23.0,35.7,N/A,,Overcast,350,2013-03-10 06:53:00
1:13 AM,23.0,19.4,86,29.94,5.0,North,19.6,31.1,N/A,,Overcast,350,2013-03-10 07:13:00
1:33 AM,21.2,19.4,93,29.94,5.0,North,20.7,33.4,N/A,,Overcast,350,2013-03-10 07:33:00
1:53 AM,21.2,19.4,93,29.96,4.0,North,18.4,31.1,N/A,,Overcast,350,2013-03-10 07:53:00
3:13 AM,21.2,19.4,93,29.97,5.0,North,16.1,32.2,N/A,,Overcast,360,2013-03-10 08:13:00
3:33 AM,21.2,19.4,93,29.97,7.0,North,17.3,32.2,N/A,,Overcast,350,2013-03-10 08:33:00
3:53 AM,21.2,17.6,86,29.97,7.0,North,20.7,29.9,N/A,,Overcast,350,2013-03-10 08:53:00
4:13 AM,21.2,17.6,86,29.97,7.0,North,13.8,25.3,N/A,,Overcast,360,2013-03-10 09:13:00
4:33 AM,21.2,17.6,86,29.97,7.0,North,11.5,24.2,N/A,,Overcast,360,2013-03-10 09:33:00
4:53 AM,21.2,17.6,86,29.96,7.0,North,21.9,29.9,N/A,,Overcast,350,2013-03-10 09:53:00
5:13 AM,21.2,17.6,86,29.97,7.0,North,20.7,29.9,N/A,,Overcast,350,2013-03-10 10:13:00
5:33 AM,21.2,17.6,86,29.98,7.0,North,19.6,29.9,N/A,,Overcast,350,2013-03-10 10:33:00
5:53 AM,21.2,17.6,86,30.00,7.0,North,13.8,25.3,N/A,,Overcast,360,2013-03-10 10:53:00
6:13 AM,21.2,17.6,86,30.01,7.0,North,20.7,29.9,N/A,,Overcast,350,2013-03-10 11:13:00
6:53 AM,21.2,17.6,86,30.04,7.0,North,23.0,28.8,N/A,,Overcast,350,2013-03-10 11:53:00
7:33 AM,21.2,17.6,86,30.06,4.0,North,17.3,29.9,N/A,,Overcast,350,2013-03-10 12:33:00
7:53 AM,21.2,17.6,86,30.07,4.0,North,15.0,27.6,N/A,,Overcast,350,2013-03-10 12:53:00
8:13 AM,19.4,17.6,93,30.07,4.0,North,15.0,25.3,N/A,,Overcast,350,2013-03-10 13:13:00
8:33 AM,19.4,17.6,93,30.07,4.0,North,16.1,26.5,N/A,,Overcast,350,2013-03-10 13:33:00
8:53 AM,21.2,17.6,86,30.07,5.0,North,11.5,23.0,N/A,,Overcast,360,2013-03-10 13:53:00
9:13 AM,21.2,17.6,86,30.08,7.0,North,10.4,21.9,N/A,,Overcast,360,2013-03-10 14:13:00
9:33 AM,21.2,17.6,86,30.09,5.0,North,11.5,21.9,N/A,,Overcast,360,2013-03-10 14:33:00
9:53 AM,21.2,17.6,86,30.10,5.0,North,18.4,24.2,N/A,,Overcast,350,2013-03-10 14:53:00
10:13 AM,21.2,17.6,86,30.10,10.0,North,12.7,21.9,N/A,,Overcast,360,2013-03-10 15:13:00
10:33 AM,21.2,17.6,86,30.10,10.0,North,18.4,24.2,N/A,,Overcast,350,2013-03-10 15:33:00
10:53 AM,21.2,17.6,86,30.11,10.0,North,15.0,24.2,N/A,,Overcast,350,2013-03-10 15:53:00
11:13 AM,21.2,17.6,86,30.11,10.0,North,17.3,-,N/A,,Overcast,350,2013-03-10 16:13:00
11:33 AM,21.2,17.6,86,30.11,10.0,North,17.3,25.3,N/A,,Overcast,350,2013-03-10 16:33:00
11:53 AM,21.2,15.8,80,30.10,5.0,North,16.1,26.5,N/A,,Haze,10,2013-03-10 16:53:00
12:13 PM,21.2,15.8,80,30.10,10.0,North,15.0,20.7,N/A,,Overcast,10,2013-03-10 17:13:00
12:33 PM,21.2,15.8,80,30.10,7.0,North,17.3,24.2,N/A,,Overcast,10,2013-03-10 17:33:00
12:52 PM,21.2,15.8,80,30.12,10.0,North,15.0,20.7,N/A,,Overcast,10,2013-03-10 17:52:00
1:13 PM,23.0,15.8,74,30.13,10.0,NNE,11.5,20.7,N/A,,Overcast,20,2013-03-10 18:13:00
1:33 PM,24.8,17.6,74,30.13,10.0,North,10.4,-,N/A,,Overcast,10,2013-03-10 18:33:00
1:53 PM,24.8,17.6,74,30.10,10.0,North,12.7,18.4,N/A,,Overcast,360,2013-03-10 18:53:00
2:13 PM,24.8,17.6,74,30.07,10.0,North,13.8,25.3,N/A,,Overcast,360,2013-03-10 19:13:00
2:33 PM,24.8,17.6,74,30.07,7.0,North,16.1,31.1,N/A,,Overcast,360,2013-03-10 19:33:00
2:53 PM,23.0,17.6,80,30.08,10.0,North,12.7,24.2,N/A,,Overcast,360,2013-03-10 19:53:00
3:13 PM,23.0,17.6,80,30.07,10.0,North,16.1,31.1,N/A,,Overcast,350,2013-03-10 20:13:00
3:33 PM,21.2,17.6,86,30.08,10.0,NNW,21.9,28.8,N/A,,Overcast,340,2013-03-10 20:33:00
3:53 PM,21.2,17.6,86,30.10,10.0,North,16.1,21.9,N/A,,Overcast,350,2013-03-10 20:53:00
4:13 PM,21.2,15.8,80,30.09,10.0,NNW,24.2,29.9,N/A,,Overcast,340,2013-03-10 21:13:00
4:33 PM,21.2,17.6,86,30.09,10.0,North,18.4,29.9,N/A,,Overcast,350,2013-03-10 21:33:00
4:53 PM,21.2,15.8,80,30.08,10.0,North,20.7,27.6,N/A,,Overcast,350,2013-03-10 21:53:00
5:13 PM,19.4,15.8,86,30.07,10.0,North,16.1,28.8,N/A,,Overcast,350,2013-03-10 22:13:00
5:33 PM,19.4,15.8,86,30.06,10.0,North,15.0,25.3,N/A,,Overcast,350,2013-03-10 22:33:00
5:53 PM,19.4,15.8,86,30.06,10.0,NNW,16.1,-,N/A,,Scattered Clouds,340,2013-03-10 22:53:00
6:13 PM,19.4,15.8,86,30.05,10.0,NNW,18.4,-,N/A,,Clear,340,2013-03-10 23:13:00
6:33 PM,19.4,14.0,80,30.06,10.0,NNW,18.4,25.3,N/A,,Clear,340,2013-03-10 23:33:00
6:53 PM,17.6,12.2,79,30.06,10.0,NNW,18.4,-,N/A,,Clear,340,2013-03-10 23:53:00
7:13 PM,17.6,12.2,79,30.07,10.0,NNW,20.7,26.5,N/A,,Clear,340,2013-03-11 00:13:00
7:33 PM,15.8,12.2,86,30.07,10.0,North,18.4,26.5,N/A,,Clear,350,2013-03-11 00:33:00
7:53 PM,15.8,12.2,86,30.08,10.0,North,17.3,26.5,N/A,,Clear,350,2013-03-11 00:53:00
8:13 PM,15.8,10.4,79,30.08,10.0,North,13.8,21.9,N/A,,Clear,360,2013-03-11 01:13:00
8:33 PM,15.8,10.4,79,30.07,10.0,North,13.8,19.6,N/A,,Clear,360,2013-03-11 01:33:00
8:53 PM,15.8,10.4,79,30.07,10.0,North,15.0,21.9,N/A,,Clear,350,2013-03-11 01:53:00
9:13 PM,14.0,10.4,86,30.07,10.0,North,11.5,19.6,N/A,,Clear,360,2013-03-11 02:13:00
9:33 PM,14.0,10.4,86,30.06,10.0,North,8.1,-,N/A,,Clear,360,2013-03-11 02:33:00
10:13 PM,12.2,8.6,85,30.07,10.0,North,8.1,-,N/A,,Clear,360,2013-03-11 03:13:00
10:53 PM,12.2,8.6,85,30.07,10.0,North,10.4,17.3,N/A,,Clear,360,2013-03-11 03:53:00
11:13 PM,12.2,6.8,79,30.06,10.0,North,10.4,-,N/A,,Clear,360,2013-03-11 04:13:00
11:32 PM,12.2,6.8,79,30.05,10.0,North,11.5,16.1,N/A,,Clear,10,2013-03-11 04:32:00
11:53 PM,12.2,6.8,79,30.04,10.0,North,11.5,-,N/A,,Clear,10,2013-03-11 04:53:00
12:13 AM,12.2,6.8,79,30.03,10.0,North,9.2,-,N/A,,Clear,10,2013-03-11 05:13:00
12:33 AM,12.2,6.8,79,30.02,10.0,NNE,9.2,-,N/A,,Clear,20,2013-03-11 05:33:00
12:53 AM,12.2,6.8,79,30.02,10.0,NE,4.6,-,N/A,,Clear,40,2013-03-11 05:53:00